Ellabell, Georgia
Current Conditions -  °F | °C
As of 8:39 PM on Tuesday 25 Nov 2014 (Local Time) from KLHW Reporting Station
Moderate Rain Moderate Rain  
Wind Chill: 57°   Ceiling: 4100
Heat Index: 57°   Visibility: 4mi
Dew Point: 55°   Wind: 3mph
Humidity: 94%   Direction: 20°NNE
Pressure: 29.97"   Gusts: NA
Location:  32.12°N, 81.49°W
Report Text: KLHW 260139Z AUTO 02003KT 4SM R33/4500FT RA BR FEW003 OVC041 14/13 A2997 RMK AO2
Loading
Personal Weather Stations






























Interactive Weather Map New forecast layout! Learn more

10-Day Weather Forecast

Advertisements
Track Severe Weather on mobile